Time;durP1;ratioP1;P1;durP2;ratioP2;P2;SDS_P1;SDS_P2;PMS_P1;PMS_P2;Temp;Humidity;BMP_temperature;BMP_pressure;BME280_temperature;BME280_humidity;BME280_pressure;Samples;Min_cycle;Max_cycle;Signal;HPM_P1;HPM_P2
2021/07/15 00:02:54;;;;;;;;;;;20.10;99.90;;;;;;6310751;28;19932;-69
2021/07/15 00:05:56;;;;;;;;;;;20.10;99.90;;;;;;6298696;28;19925;-69
2021/07/15 00:08:58;;;;;;;;;;;20.10;99.90;;;;;;6302076;28;20337;-68
2021/07/15 00:11:59;;;;;;;;;;;20.10;99.90;;;;;;6304575;28;19990;-69
2021/07/15 00:15:03;;;;;;;;;;;20.00;99.90;;;;;;6306970;28;19928;-69
2021/07/15 00:18:09;;;;;;;;;;;20.10;99.90;;;;;;6302452;28;19928;-68
2021/07/15 00:21:12;;;;;;;;;;;20.10;99.90;;;;;;6307573;28;19924;-69
2021/07/15 00:24:17;;;;;;;;;;;20.00;99.90;;;;;;6307410;28;20314;-69
2021/07/15 00:27:18;;;;;;;;;;;20.00;99.90;;;;;;6305904;28;20040;-69
2021/07/15 00:30:20;;;;;;;;;;;20.00;99.90;;;;;;6302824;28;19928;-69
2021/07/15 00:33:22;;;;;;;;;;;20.00;99.90;;;;;;6303945;28;19925;-69
2021/07/15 00:36:23;;;;;;;;;;;20.00;99.90;;;;;;6315307;28;20022;-69
2021/07/15 00:39:25;;;;;;;;;;;20.00;99.90;;;;;;6306913;28;19971;-69
2021/07/15 00:42:27;;;;;;;;;;;19.90;99.90;;;;;;6312708;28;19924;-69
2021/07/15 00:45:30;;;;;;;;;;;20.00;99.90;;;;;;6302885;28;20287;-69
2021/07/15 00:48:32;;;;;;;;;;;19.90;99.90;;;;;;6305016;28;19957;-68
2021/07/15 00:51:33;;;;;;;;;;;19.90;99.90;;;;;;6306808;28;20558;-69
2021/07/15 00:54:35;;;;;;;;;;;19.90;99.90;;;;;;6306730;28;20313;-69
2021/07/15 00:57:37;;;;;;;;;;;19.90;99.90;;;;;;6298590;28;19935;-69
2021/07/15 01:00:40;;;;;;;;;;;19.90;99.90;;;;;;6296621;28;19924;-69
2021/07/15 01:03:42;;;;;;;;;;;19.80;99.90;;;;;;6302631;28;20038;-69
2021/07/15 01:06:44;;;;;;;;;;;19.80;99.90;;;;;;6311691;28;19928;-69
2021/07/15 01:09:45;;;;;;;;;;;19.80;99.90;;;;;;6312965;28;20291;-70
2021/07/15 01:13:08;;;;;;;;;;;19.80;99.90;;;;;;6305922;28;19989;-69
2021/07/15 01:16:22;;;;;;;;;;;19.90;99.90;;;;;;6303114;28;20007;-69
2021/07/15 01:19:46;;;;;;;;;;;19.80;99.90;;;;;;6306156;28;19935;-69
2021/07/15 01:23:07;;;;;;;;;;;19.80;99.90;;;;;;6296204;28;20264;-69
2021/07/15 01:26:28;;;;;;;;;;;19.80;99.90;;;;;;6296916;28;19928;-69
2021/07/15 01:29:48;;;;;;;;;;;19.80;99.90;;;;;;6297253;28;20004;-69
2021/07/15 01:33:05;;;;;;;;;;;19.80;99.90;;;;;;6307469;28;19924;-69
2021/07/15 01:36:10;;;;;;;;;;;19.80;99.90;;;;;;6311048;28;19928;-69
2021/07/15 01:39:12;;;;;;;;;;;19.80;99.90;;;;;;6311275;28;20015;-69
2021/07/15 01:42:15;;;;;;;;;;;19.80;99.90;;;;;;6299483;28;20011;-69
2021/07/15 01:45:16;;;;;;;;;;;19.80;99.90;;;;;;6302336;28;19928;-69
2021/07/15 01:48:18;;;;;;;;;;;19.80;99.90;;;;;;6303854;28;19924;-69
2021/07/15 01:51:21;;;;;;;;;;;19.80;99.90;;;;;;6301556;28;19924;-69
2021/07/15 01:54:23;;;;;;;;;;;19.70;99.90;;;;;;6304364;28;19992;-69
2021/07/15 01:57:26;;;;;;;;;;;19.70;99.90;;;;;;6299065;28;19925;-69
2021/07/15 02:00:27;;;;;;;;;;;19.70;99.90;;;;;;6300681;28;19924;-69
2021/07/15 02:03:30;;;;;;;;;;;19.70;99.90;;;;;;6309773;28;20009;-69
2021/07/15 02:06:33;;;;;;;;;;;19.70;99.90;;;;;;6307514;28;19924;-69
2021/07/15 02:09:35;;;;;;;;;;;19.70;99.90;;;;;;6297367;28;19924;-69
2021/07/15 02:12:37;;;;;;;;;;;19.70;99.90;;;;;;6299126;28;19982;-69
2021/07/15 02:15:39;;;;;;;;;;;19.60;99.90;;;;;;6302304;28;19928;-69
2021/07/15 02:18:43;;;;;;;;;;;19.60;99.90;;;;;;6294422;28;19924;-69
2021/07/15 02:21:45;;;;;;;;;;;19.60;99.90;;;;;;6306221;28;19928;-69
2021/07/15 02:24:47;;;;;;;;;;;19.50;99.90;;;;;;6300660;28;19935;-69
2021/07/15 02:27:51;;;;;;;;;;;19.50;99.90;;;;;;6293009;28;19997;-68
2021/07/15 02:30:53;;;;;;;;;;;19.50;99.90;;;;;;6305440;28;20008;-69
2021/07/15 02:33:57;;;;;;;;;;;19.50;99.90;;;;;;6305951;28;20082;-69
2021/07/15 02:37:05;;;;;;;;;;;19.50;99.90;;;;;;6300114;28;20413;-68
2021/07/15 02:40:08;;;;;;;;;;;19.50;99.90;;;;;;6298808;28;20418;-69
2021/07/15 02:43:10;;;;;;;;;;;19.40;99.90;;;;;;6305689;28;19924;-69
2021/07/15 02:46:11;;;;;;;;;;;19.40;99.90;;;;;;6303744;28;19947;-69
2021/07/15 02:49:13;;;;;;;;;;;19.40;99.90;;;;;;6302643;28;19940;-69
2021/07/15 02:52:16;;;;;;;;;;;19.40;99.90;;;;;;6300908;28;20372;-69
2021/07/15 02:55:18;;;;;;;;;;;19.40;99.90;;;;;;6302452;28;19978;-69
2021/07/15 02:58:33;;;;;;;;;;;19.40;99.90;;;;;;6322117;28;19925;-69
2021/07/15 03:01:40;;;;;;;;;;;19.40;99.90;;;;;;6305939;28;20006;-69
2021/07/15 03:04:45;;;;;;;;;;;19.40;99.90;;;;;;6311285;28;19983;-69
2021/07/15 03:07:49;;;;;;;;;;;19.40;99.90;;;;;;6301474;28;19998;-69
2021/07/15 03:10:53;;;;;;;;;;;19.40;99.90;;;;;;6300103;28;19983;-69
2021/07/15 03:13:55;;;;;;;;;;;19.40;99.90;;;;;;6301991;28;19924;-69
2021/07/15 03:16:58;;;;;;;;;;;19.40;99.90;;;;;;6296790;28;20265;-69
2021/07/15 03:20:01;;;;;;;;;;;19.40;99.90;;;;;;6295177;28;19932;-69
2021/07/15 03:23:05;;;;;;;;;;;19.40;99.90;;;;;;6300119;28;19954;-68
2021/07/15 03:26:08;;;;;;;;;;;19.40;99.90;;;;;;6298914;28;19970;-69
2021/07/15 03:29:10;;;;;;;;;;;19.40;99.90;;;;;;6295463;28;19932;-69
2021/07/15 03:32:12;;;;;;;;;;;19.40;99.90;;;;;;6302277;28;19931;-69
2021/07/15 03:35:15;;;;;;;;;;;19.40;99.90;;;;;;6298194;28;19932;-69
2021/07/15 03:38:17;;;;;;;;;;;19.30;99.90;;;;;;6300904;28;20414;-69
2021/07/15 03:41:20;;;;;;;;;;;19.40;99.90;;;;;;6316039;28;19947;-69
2021/07/15 03:44:23;;;;;;;;;;;19.40;99.90;;;;;;6327655;28;20415;-69
2021/07/15 03:47:25;;;;;;;;;;;19.40;99.90;;;;;;6296675;28;19932;-69
2021/07/15 03:50:28;;;;;;;;;;;19.40;99.90;;;;;;6296455;28;19925;-69
2021/07/15 03:53:30;;;;;;;;;;;19.40;99.90;;;;;;6303477;28;20348;-69
2021/07/15 03:56:32;;;;;;;;;;;19.40;99.90;;;;;;6303768;28;19924;-69
2021/07/15 03:59:38;;;;;;;;;;;19.40;99.90;;;;;;6305644;28;19931;-69
2021/07/15 04:02:40;;;;;;;;;;;19.40;99.90;;;;;;6309629;28;19924;-69
2021/07/15 04:05:43;;;;;;;;;;;19.40;99.90;;;;;;6313521;28;19943;-69
2021/07/15 04:08:45;;;;;;;;;;;19.40;99.90;;;;;;6301826;28;19928;-69
2021/07/15 04:11:47;;;;;;;;;;;19.40;99.90;;;;;;6300577;28;20000;-69
2021/07/15 04:14:57;;;;;;;;;;;19.40;99.90;;;;;;6299664;28;20040;-69
2021/07/15 04:18:00;;;;;;;;;;;19.40;99.90;;;;;;6305151;28;20390;-69
2021/07/15 04:21:01;;;;;;;;;;;19.40;99.90;;;;;;6305168;28;20328;-69
2021/07/15 04:24:04;;;;;;;;;;;19.40;99.90;;;;;;6307769;28;19931;-69
2021/07/15 04:27:06;;;;;;;;;;;19.40;99.90;;;;;;6295856;28;19928;-69
2021/07/15 04:30:08;;;;;;;;;;;19.30;99.90;;;;;;6302876;28;19971;-68
2021/07/15 04:33:10;;;;;;;;;;;19.30;99.90;;;;;;6308544;28;19935;-69
2021/07/15 04:36:12;;;;;;;;;;;19.30;99.90;;;;;;6305700;28;19939;-69
2021/07/15 04:39:14;;;;;;;;;;;19.30;99.90;;;;;;6303822;28;19932;-69
2021/07/15 04:42:17;;;;;;;;;;;19.30;99.90;;;;;;6302236;28;19935;-69
2021/07/15 04:45:23;;;;;;;;;;;19.20;99.90;;;;;;6304922;28;20256;-69
2021/07/15 04:48:24;;;;;;;;;;;19.30;99.90;;;;;;6304635;28;20391;-69
2021/07/15 04:51:26;;;;;;;;;;;19.30;99.90;;;;;;6299816;28;20663;-68
2021/07/15 04:54:29;;;;;;;;;;;19.30;99.90;;;;;;6306092;28;19936;-69
2021/07/15 04:57:33;;;;;;;;;;;19.30;99.90;;;;;;6299599;28;19925;-69
2021/07/15 05:00:36;;;;;;;;;;;19.30;99.90;;;;;;6297849;28;20298;-69
2021/07/15 05:03:38;;;;;;;;;;;19.30;99.90;;;;;;6307937;28;19929;-69
2021/07/15 05:06:40;;;;;;;;;;;19.20;99.90;;;;;;6309371;28;19928;-69
2021/07/15 05:09:42;;;;;;;;;;;19.20;99.90;;;;;;6304789;28;19982;-69
2021/07/15 05:12:43;;;;;;;;;;;19.20;99.90;;;;;;6307396;28;19974;-69
2021/07/15 05:15:46;;;;;;;;;;;19.20;99.90;;;;;;6294589;28;19928;-69
2021/07/15 05:18:48;;;;;;;;;;;19.20;99.90;;;;;;6303409;28;19932;-69
2021/07/15 05:21:49;;;;;;;;;;;19.20;99.90;;;;;;6301551;28;20419;-69
2021/07/15 05:24:51;;;;;;;;;;;19.20;99.90;;;;;;6305828;28;20573;-68
2021/07/15 05:27:53;;;;;;;;;;;19.10;99.90;;;;;;6300623;28;19929;-68
2021/07/15 05:30:55;;;;;;;;;;;19.10;99.90;;;;;;6306592;28;19939;-68
2021/07/15 05:33:57;;;;;;;;;;;19.10;99.90;;;;;;6305686;28;19925;-69
2021/07/15 05:37:00;;;;;;;;;;;19.10;99.90;;;;;;6304165;28;19932;-69
2021/07/15 05:40:03;;;;;;;;;;;19.00;99.90;;;;;;6308861;28;20264;-69
2021/07/15 05:43:05;;;;;;;;;;;19.00;99.90;;;;;;6305244;28;19924;-68
2021/07/15 05:46:06;;;;;;;;;;;19.00;99.90;;;;;;6302975;28;19935;-69
2021/07/15 05:49:08;;;;;;;;;;;19.00;99.90;;;;;;6298172;28;19935;-69
2021/07/15 05:52:11;;;;;;;;;;;19.00;99.90;;;;;;6302567;28;20067;-69
2021/07/15 05:55:13;;;;;;;;;;;19.00;99.90;;;;;;6303334;28;19924;-68
2021/07/15 05:58:14;;;;;;;;;;;19.00;99.90;;;;;;6302001;28;19943;-69
2021/07/15 06:01:16;;;;;;;;;;;19.00;99.90;;;;;;6303402;28;19940;-69
2021/07/15 06:04:18;;;;;;;;;;;18.90;99.90;;;;;;6302528;28;20426;-69
2021/07/15 06:07:19;;;;;;;;;;;19.00;99.90;;;;;;6300682;28;19925;-69
2021/07/15 06:10:21;;;;;;;;;;;18.90;99.90;;;;;;6300360;28;19923;-69
2021/07/15 06:13:23;;;;;;;;;;;18.90;99.90;;;;;;6300574;28;20379;-69
2021/07/15 06:16:25;;;;;;;;;;;18.90;99.90;;;;;;6293549;28;20498;-68
2021/07/15 06:19:26;;;;;;;;;;;18.90;99.90;;;;;;6310505;28;19924;-68
2021/07/15 06:22:28;;;;;;;;;;;18.90;99.90;;;;;;6300486;28;19925;-69
2021/07/15 06:25:30;;;;;;;;;;;18.90;99.90;;;;;;6300790;28;19928;-68
2021/07/15 06:28:32;;;;;;;;;;;18.90;99.90;;;;;;6295990;28;19932;-69
2021/07/15 06:31:33;;;;;;;;;;;18.90;99.90;;;;;;6296772;28;19925;-68
2021/07/15 06:34:35;;;;;;;;;;;18.90;99.90;;;;;;6294796;28;20015;-68
2021/07/15 06:37:40;;;;;;;;;;;18.90;99.90;;;;;;6300569;28;19924;-68
2021/07/15 06:40:42;;;;;;;;;;;18.90;99.90;;;;;;6301034;28;19933;-68
2021/07/15 06:43:44;;;;;;;;;;;18.80;99.90;;;;;;6308702;28;19939;-68
2021/07/15 06:46:46;;;;;;;;;;;18.80;99.90;;;;;;6293002;28;19932;-68
2021/07/15 06:49:48;;;;;;;;;;;18.80;99.90;;;;;;6302183;28;19924;-68
2021/07/15 06:52:49;;;;;;;;;;;18.80;99.90;;;;;;6302843;28;20368;-68
2021/07/15 06:55:51;;;;;;;;;;;18.70;99.90;;;;;;6300152;28;19982;-68
2021/07/15 06:58:54;;;;;;;;;;;18.70;99.90;;;;;;6308895;28;20265;-68
2021/07/15 07:01:56;;;;;;;;;;;18.70;99.90;;;;;;6305503;28;19987;-68
2021/07/15 07:04:58;;;;;;;;;;;18.70;99.90;;;;;;6298273;28;20272;-68
2021/07/15 07:08:00;;;;;;;;;;;18.70;99.90;;;;;;6301151;28;20020;-68
2021/07/15 07:11:01;;;;;;;;;;;18.60;99.90;;;;;;6306282;28;19924;-68
2021/07/15 07:14:03;;;;;;;;;;;18.60;99.90;;;;;;6295512;28;19924;-68
2021/07/15 07:17:07;;;;;;;;;;;18.60;99.90;;;;;;6293440;28;21234;-68
2021/07/15 07:20:09;;;;;;;;;;;18.60;99.90;;;;;;6292944;28;19971;-68
2021/07/15 07:23:13;;;;;;;;;;;18.60;99.90;;;;;;6299013;28;19931;-68
2021/07/15 07:26:15;;;;;;;;;;;18.60;99.90;;;;;;6293172;28;19928;-68
2021/07/15 07:29:16;;;;;;;;;;;18.60;99.90;;;;;;6285477;28;20237;-68
2021/07/15 07:32:18;;;;;;;;;;;18.60;99.90;;;;;;6301716;28;19947;-69
2021/07/15 07:35:20;;;;;;;;;;;18.60;99.90;;;;;;6287893;28;19924;-68
2021/07/15 07:38:21;;;;;;;;;;;18.60;99.90;;;;;;6286389;28;19973;-68
2021/07/15 07:41:23;;;;;;;;;;;18.60;99.90;;;;;;6286422;28;19955;-68
2021/07/15 07:44:25;;;;;;;;;;;18.60;99.90;;;;;;6287015;28;19928;-68
2021/07/15 07:47:26;;;;;;;;;;;18.60;99.90;;;;;;6285881;28;19971;-68
2021/07/15 07:50:28;;;;;;;;;;;18.60;99.90;;;;;;6289719;28;19955;-68
2021/07/15 07:53:29;;;;;;;;;;;18.60;99.90;;;;;;6288491;28;19998;-68
2021/07/15 07:56:32;;;;;;;;;;;18.60;99.90;;;;;;6287033;28;19992;-68
2021/07/15 07:59:34;;;;;;;;;;;18.60;99.90;;;;;;6287832;28;19925;-68
2021/07/15 08:02:35;;;;;;;;;;;18.60;99.90;;;;;;6287135;28;20159;-68
2021/07/15 08:05:40;;;;;;;;;;;18.60;99.90;;;;;;6291471;28;20031;-68
2021/07/15 08:08:43;;;;;;;;;;;18.50;99.90;;;;;;6291240;28;19939;-68
2021/07/15 08:11:46;;;;;;;;;;;18.60;99.90;;;;;;6291044;28;19939;-68
2021/07/15 08:14:48;;;;;;;;;;;18.60;99.90;;;;;;6292288;28;20248;-69
2021/07/15 08:17:50;;;;;;;;;;;18.60;99.90;;;;;;6306532;28;19931;-68
2021/07/15 08:20:52;;;;;;;;;;;18.60;99.90;;;;;;6292573;28;19924;-68
2021/07/15 08:23:53;;;;;;;;;;;18.60;99.90;;;;;;6290527;28;20330;-68
2021/07/15 08:26:55;;;;;;;;;;;18.60;99.90;;;;;;6291820;28;19924;-68
2021/07/15 08:29:57;;;;;;;;;;;18.60;99.90;;;;;;6293285;28;19938;-68
2021/07/15 08:32:59;;;;;;;;;;;18.60;99.90;;;;;;6292195;28;19932;-68
2021/07/15 08:36:01;;;;;;;;;;;18.60;99.90;;;;;;6292232;28;20078;-68
2021/07/15 08:39:03;;;;;;;;;;;18.60;99.90;;;;;;6291002;28;19936;-68
2021/07/15 08:42:07;;;;;;;;;;;18.60;99.90;;;;;;6291335;28;19958;-68
2021/07/15 08:45:09;;;;;;;;;;;18.70;99.90;;;;;;6308477;28;19925;-69
2021/07/15 08:48:12;;;;;;;;;;;18.70;99.90;;;;;;6290083;28;20399;-69
2021/07/15 08:51:14;;;;;;;;;;;18.70;99.90;;;;;;6292485;28;20023;-69
2021/07/15 08:54:17;;;;;;;;;;;18.80;99.90;;;;;;6295048;28;19977;-69
2021/07/15 08:57:18;;;;;;;;;;;18.80;99.90;;;;;;6290933;28;19925;-68
2021/07/15 09:00:20;;;;;;;;;;;18.80;99.90;;;;;;6291590;28;20325;-68
2021/07/15 09:03:22;;;;;;;;;;;18.80;99.90;;;;;;6306677;28;24538;-68
2021/07/15 09:06:23;;;;;;;;;;;18.80;99.90;;;;;;6292528;28;20372;-68
2021/07/15 09:09:25;;;;;;;;;;;18.80;99.90;;;;;;6291401;28;20427;-68
2021/07/15 09:12:27;;;;;;;;;;;18.80;99.90;;;;;;6293616;28;19931;-68
2021/07/15 09:15:28;;;;;;;;;;;18.80;99.90;;;;;;6292873;28;19924;-68
2021/07/15 09:18:30;;;;;;;;;;;18.70;99.90;;;;;;6286333;28;19939;-69
2021/07/15 09:21:33;;;;;;;;;;;18.70;99.90;;;;;;6290163;28;20027;-68
2021/07/15 09:24:44;;;;;;;;;;;18.70;99.90;;;;;;6290929;28;20452;-69
2021/07/15 09:27:49;;;;;;;;;;;18.70;99.90;;;;;;6289749;28;20003;-69
2021/07/15 09:30:51;;;;;;;;;;;18.70;99.90;;;;;;6292212;28;19931;-69
2021/07/15 09:33:53;;;;;;;;;;;18.60;99.90;;;;;;6290271;28;19943;-69
2021/07/15 09:36:55;;;;;;;;;;;18.60;99.90;;;;;;6289427;28;19925;-68
2021/07/15 09:39:57;;;;;;;;;;;18.60;99.90;;;;;;6290355;28;20378;-69
2021/07/15 09:43:09;;;;;;;;;;;18.60;99.90;;;;;;6290413;28;19924;-69
2021/07/15 09:46:11;;;;;;;;;;;18.60;99.90;;;;;;6290680;28;19980;-68
2021/07/15 09:49:13;;;;;;;;;;;18.60;99.90;;;;;;6289415;28;19925;-69
2021/07/15 09:52:20;;;;;;;;;;;18.60;99.90;;;;;;6290576;28;19928;-69
2021/07/15 09:55:26;;;;;;;;;;;18.60;99.90;;;;;;6291551;28;19931;-69
2021/07/15 09:58:38;;;;;;;;;;;18.60;99.90;;;;;;6288139;28;20378;-69
2021/07/15 10:01:43;;;;;;;;;;;18.60;99.90;;;;;;6290729;28;19935;-69
2021/07/15 10:04:50;;;;;;;;;;;18.70;99.90;;;;;;6292278;28;19951;-68
2021/07/15 10:08:05;;;;;;;;;;;18.60;99.90;;;;;;6288886;28;20426;-68
2021/07/15 10:11:14;;;;;;;;;;;18.70;99.90;;;;;;6289690;28;19936;-69
2021/07/15 10:14:18;;;;;;;;;;;18.70;99.90;;;;;;6290593;28;19994;-69
2021/07/15 10:17:37;;;;;;;;;;;18.70;99.90;;;;;;6288738;28;19988;-69
2021/07/15 10:20:52;;;;;;;;;;;18.70;99.90;;;;;;6290351;28;20265;-69
2021/07/15 10:23:54;;;;;;;;;;;18.70;99.90;;;;;;6289058;28;19928;-69
2021/07/15 10:27:03;;;;;;;;;;;18.70;99.90;;;;;;6288143;28;20000;-69
2021/07/15 10:30:06;;;;;;;;;;;18.70;99.90;;;;;;6287850;28;19951;-69
2021/07/15 10:33:11;;;;;;;;;;;18.70;99.90;;;;;;6287819;28;19944;-69
2021/07/15 10:36:13;;;;;;;;;;;18.70;99.90;;;;;;6289287;28;19928;-69
2021/07/15 10:39:15;;;;;;;;;;;18.80;99.90;;;;;;6290002;28;20352;-69
2021/07/15 10:42:17;;;;;;;;;;;18.80;99.90;;;;;;6288245;28;19971;-69
2021/07/15 10:45:18;;;;;;;;;;;18.90;99.90;;;;;;6290029;28;20000;-68
2021/07/15 10:48:21;;;;;;;;;;;18.80;99.90;;;;;;6285631;28;19932;-68
2021/07/15 10:51:22;;;;;;;;;;;18.90;99.90;;;;;;6303391;28;19935;-68
2021/07/15 10:54:25;;;;;;;;;;;18.90;99.90;;;;;;6291156;28;19932;-68
2021/07/15 10:57:26;;;;;;;;;;;18.90;99.90;;;;;;6287273;28;19925;-68
2021/07/15 11:00:28;;;;;;;;;;;18.90;99.90;;;;;;6289637;28;19998;-68
2021/07/15 11:03:30;;;;;;;;;;;18.90;99.90;;;;;;6287922;28;19928;-69
2021/07/15 11:06:44;;;;;;;;;;;18.90;99.90;;;;;;6287776;28;19942;-69
2021/07/15 11:09:47;;;;;;;;;;;18.90;99.90;;;;;;6287482;28;20300;-69
2021/07/15 11:12:59;;;;;;;;;;;18.90;99.90;;;;;;6291081;28;20301;-68
2021/07/15 11:16:04;;;;;;;;;;;18.90;99.90;;;;;;6288594;28;19925;-68
2021/07/15 11:19:07;;;;;;;;;;;18.90;99.90;;;;;;6287552;28;19982;-68
2021/07/15 11:22:10;;;;;;;;;;;18.90;99.90;;;;;;6287218;28;19929;-68
2021/07/15 11:25:33;;;;;;;;;;;18.90;99.90;;;;;;6287321;28;19931;-69
2021/07/15 11:28:48;;;;;;;;;;;18.90;99.90;;;;;;6287731;28;19980;-69
2021/07/15 11:31:53;;;;;;;;;;;18.90;99.90;;;;;;6288858;28;21445;-69
2021/07/15 11:34:55;;;;;;;;;;;18.90;99.90;;;;;;6303634;28;19925;-68
2021/07/15 11:38:04;;;;;;;;;;;18.90;99.90;;;;;;6287384;28;19928;-68
2021/07/15 11:41:13;;;;;;;;;;;18.90;99.90;;;;;;6290321;28;20011;-68
2021/07/15 11:44:16;;;;;;;;;;;18.90;99.90;;;;;;6294284;28;19932;-68
2021/07/15 11:47:52;;;;;;;;;;;18.90;99.90;;;;;;6290135;28;20452;-68
2021/07/15 11:51:14;;;;;;;;;;;18.90;99.90;;;;;;6268602;28;20284;-68
2021/07/15 11:54:18;;;;;;;;;;;18.90;99.90;;;;;;6293442;28;19928;-68
2021/07/15 11:57:21;;;;;;;;;;;18.90;99.90;;;;;;6291219;28;20549;-68
2021/07/15 12:00:23;;;;;;;;;;;18.90;99.90;;;;;;6294523;28;19924;-68
2021/07/15 12:03:58;;;;;;;;;;;18.90;99.90;;;;;;6293232;28;24034;-68
2021/07/15 12:06:59;;;;;;;;;;;18.90;99.90;;;;;;6290080;28;19932;-68
2021/07/15 12:10:03;;;;;;;;;;;18.90;99.90;;;;;;6294802;28;19928;-68
2021/07/15 12:13:05;;;;;;;;;;;18.90;99.90;;;;;;6292292;28;19932;-68
2021/07/15 12:16:07;;;;;;;;;;;19.00;99.90;;;;;;6291776;28;19928;-68
2021/07/15 12:19:10;;;;;;;;;;;19.00;99.90;;;;;;6293578;28;20350;-68
2021/07/15 12:22:11;;;;;;;;;;;19.00;99.90;;;;;;6290701;28;19925;-69
2021/07/15 12:25:16;;;;;;;;;;;19.00;99.90;;;;;;6292870;28;19928;-69
2021/07/15 12:28:18;;;;;;;;;;;19.10;99.90;;;;;;6289923;28;19928;-69
2021/07/15 12:31:20;;;;;;;;;;;19.10;99.90;;;;;;6291019;28;19978;-69
2021/07/15 12:34:26;;;;;;;;;;;19.10;99.90;;;;;;6292047;28;20291;-69
2021/07/15 12:37:29;;;;;;;;;;;19.10;99.90;;;;;;6292386;28;20002;-69
2021/07/15 12:40:32;;;;;;;;;;;19.10;99.90;;;;;;6293084;28;20345;-69
2021/07/15 12:43:41;;;;;;;;;;;19.10;99.90;;;;;;6291530;28;20379;-69
2021/07/15 12:46:52;;;;;;;;;;;19.10;99.90;;;;;;6290809;28;19932;-69
2021/07/15 12:49:55;;;;;;;;;;;19.20;99.90;;;;;;6290457;28;20468;-69
2021/07/15 12:53:10;;;;;;;;;;;19.20;99.90;;;;;;6293117;28;20078;-69
2021/07/15 12:56:13;;;;;;;;;;;19.20;99.90;;;;;;6293356;28;19989;-69
2021/07/15 12:59:22;;;;;;;;;;;19.30;99.90;;;;;;6291423;28;19935;-69
2021/07/15 13:02:33;;;;;;;;;;;19.30;99.90;;;;;;6291717;28;20313;-69
2021/07/15 13:05:36;;;;;;;;;;;19.20;99.90;;;;;;6290757;28;20391;-69
2021/07/15 13:09:29;;;;;;;;;;;19.30;99.90;;;;;;6290593;28;20390;-69
2021/07/15 13:15:22;;;;;;;;;;;19.30;99.90;;;;;;6292314;28;19993;-69
2021/07/15 13:18:25;;;;;;;;;;;19.20;99.90;;;;;;6289030;28;19932;-69
2021/07/15 13:21:27;;;;;;;;;;;19.20;99.90;;;;;;6292519;28;19932;-69
2021/07/15 13:24:29;;;;;;;;;;;19.20;99.90;;;;;;6289223;28;20243;-69
2021/07/15 13:27:31;;;;;;;;;;;19.20;99.90;;;;;;6288477;28;19936;-69
2021/07/15 13:30:33;;;;;;;;;;;19.20;99.90;;;;;;6292374;28;19989;-69
2021/07/15 13:33:40;;;;;;;;;;;19.20;99.90;;;;;;6290679;28;19936;-69
2021/07/15 13:36:52;;;;;;;;;;;19.20;99.90;;;;;;6290699;28;20299;-69
2021/07/15 13:39:55;;;;;;;;;;;19.20;99.90;;;;;;6290883;28;20249;-69
2021/07/15 13:43:04;;;;;;;;;;;19.20;99.90;;;;;;6287543;28;19925;-69
2021/07/15 13:46:08;;;;;;;;;;;19.20;99.90;;;;;;6290360;28;19932;-69
2021/07/15 13:49:10;;;;;;;;;;;19.10;99.90;;;;;;6290107;28;19924;-69
2021/07/15 13:52:12;;;;;;;;;;;19.10;99.90;;;;;;6290247;28;19955;-69
2021/07/15 13:55:14;;;;;;;;;;;19.10;99.90;;;;;;6290898;28;20379;-69
2021/07/15 13:58:17;;;;;;;;;;;19.00;99.90;;;;;;6290290;28;19932;-69
2021/07/15 14:01:27;;;;;;;;;;;18.90;99.90;;;;;;6288570;28;19925;-69
2021/07/15 14:04:28;;;;;;;;;;;18.90;99.90;;;;;;6290150;28;19935;-69
2021/07/15 14:07:31;;;;;;;;;;;18.90;99.90;;;;;;6289123;28;20291;-69
2021/07/15 14:10:33;;;;;;;;;;;18.80;99.90;;;;;;6292448;28;20220;-69
2021/07/15 14:13:36;;;;;;;;;;;18.80;99.90;;;;;;6289667;28;19928;-69
2021/07/15 14:16:38;;;;;;;;;;;18.70;99.90;;;;;;6291069;28;19992;-69
2021/07/15 14:19:40;;;;;;;;;;;18.70;99.90;;;;;;6289967;28;20058;-69
2021/07/15 14:22:41;;;;;;;;;;;18.70;99.90;;;;;;6291464;28;19964;-69
2021/07/15 14:25:43;;;;;;;;;;;18.70;99.90;;;;;;6290062;28;19936;-68
2021/07/15 14:28:47;;;;;;;;;;;18.70;99.90;;;;;;6287559;28;20604;-68
2021/07/15 14:31:49;;;;;;;;;;;18.70;99.90;;;;;;6288961;28;19937;-68
2021/07/15 14:34:51;;;;;;;;;;;18.60;99.90;;;;;;6289393;28;20473;-68
2021/07/15 14:37:53;;;;;;;;;;;18.60;99.90;;;;;;6289758;28;19924;-68
2021/07/15 14:40:54;;;;;;;;;;;18.60;99.90;;;;;;6285962;28;19966;-68
2021/07/15 14:43:56;;;;;;;;;;;18.60;99.90;;;;;;6288467;28;19924;-68
2021/07/15 14:46:58;;;;;;;;;;;18.50;99.90;;;;;;6286193;28;19924;-68
2021/07/15 14:50:01;;;;;;;;;;;18.50;99.90;;;;;;6289461;28;19930;-68
2021/07/15 14:53:03;;;;;;;;;;;18.50;99.90;;;;;;6287422;28;20414;-69
2021/07/15 14:56:04;;;;;;;;;;;18.50;99.90;;;;;;6288529;28;19932;-68
2021/07/15 14:59:06;;;;;;;;;;;18.50;99.90;;;;;;6288990;28;19929;-68
2021/07/15 15:02:08;;;;;;;;;;;18.60;99.90;;;;;;6288732;28;19924;-68
2021/07/15 15:05:10;;;;;;;;;;;18.50;99.90;;;;;;6292206;28;19951;-68
2021/07/15 15:08:13;;;;;;;;;;;18.50;99.90;;;;;;6287724;28;20291;-68
2021/07/15 15:11:15;;;;;;;;;;;18.50;99.90;;;;;;6286858;28;19935;-68
2021/07/15 15:14:17;;;;;;;;;;;18.60;99.90;;;;;;6292295;28;20004;-68
2021/07/15 15:17:19;;;;;;;;;;;18.50;99.90;;;;;;6287215;28;20005;-68
2021/07/15 15:20:20;;;;;;;;;;;18.50;99.90;;;;;;6305758;28;20369;-68
2021/07/15 15:23:26;;;;;;;;;;;18.50;99.90;;;;;;6290365;28;19928;-68
2021/07/15 15:26:29;;;;;;;;;;;18.50;99.90;;;;;;6288277;28;19930;-68
2021/07/15 15:29:30;;;;;;;;;;;18.60;99.90;;;;;;6288564;28;20321;-68
2021/07/15 15:32:32;;;;;;;;;;;18.50;99.90;;;;;;6304418;28;19940;-68
2021/07/15 15:35:34;;;;;;;;;;;18.50;99.90;;;;;;6284084;28;19990;-68
2021/07/15 15:38:39;;;;;;;;;;;18.60;99.90;;;;;;6284321;28;20277;-68
2021/07/15 15:41:41;;;;;;;;;;;18.50;99.90;;;;;;6290344;28;19932;-68
2021/07/15 15:44:43;;;;;;;;;;;18.50;99.90;;;;;;6286862;28;19987;-68
2021/07/15 15:47:44;;;;;;;;;;;18.50;99.90;;;;;;6286071;28;20410;-68
2021/07/15 15:50:46;;;;;;;;;;;18.50;99.90;;;;;;6301552;28;20000;-68
2021/07/15 15:53:48;;;;;;;;;;;18.50;99.90;;;;;;6287799;28;19935;-68
2021/07/15 15:56:49;;;;;;;;;;;18.50;99.90;;;;;;6286234;28;19931;-68
2021/07/15 15:59:51;;;;;;;;;;;18.50;99.90;;;;;;6287782;28;20288;-69
2021/07/15 16:02:53;;;;;;;;;;;18.50;99.90;;;;;;6287439;28;20368;-68
2021/07/15 16:05:55;;;;;;;;;;;18.50;99.90;;;;;;6288351;28;19933;-68
2021/07/15 16:08:58;;;;;;;;;;;18.60;99.90;;;;;;6288526;28;20592;-69
2021/07/15 16:11:59;;;;;;;;;;;18.60;99.90;;;;;;6286311;28;19944;-68
2021/07/15 16:15:06;;;;;;;;;;;18.60;99.90;;;;;;6288326;28;19997;-68
2021/07/15 16:18:08;;;;;;;;;;;18.60;99.90;;;;;;6285447;28;20368;-68
2021/07/15 16:21:10;;;;;;;;;;;18.60;99.90;;;;;;6288848;28;19936;-68
2021/07/15 16:24:11;;;;;;;;;;;18.60;99.90;;;;;;6287679;28;19928;-69
2021/07/15 16:27:27;;;;;;;;;;;18.60;99.90;;;;;;6292888;28;19931;-68
2021/07/15 16:30:32;;;;;;;;;;;18.60;99.90;;;;;;6291438;28;20328;-69
2021/07/15 16:33:34;;;;;;;;;;;18.70;99.90;;;;;;6290835;28;19925;-69
2021/07/15 16:36:37;;;;;;;;;;;18.70;99.90;;;;;;6290549;28;19925;-68
2021/07/15 16:39:39;;;;;;;;;;;18.70;99.90;;;;;;6291286;28;20264;-68
2021/07/15 16:42:46;;;;;;;;;;;18.70;99.90;;;;;;6292439;28;19924;-69
2021/07/15 16:45:48;;;;;;;;;;;18.70;99.90;;;;;;6293917;28;19929;-69
2021/07/15 16:48:49;;;;;;;;;;;18.70;99.90;;;;;;6292006;28;19932;-69
2021/07/15 16:51:51;;;;;;;;;;;18.70;99.90;;;;;;6289394;28;19935;-69
2021/07/15 16:54:53;;;;;;;;;;;18.70;99.90;;;;;;6293369;28;20025;-69
2021/07/15 16:57:55;;;;;;;;;;;18.70;99.90;;;;;;6290248;28;20334;-68
2021/07/15 17:00:56;;;;;;;;;;;18.70;99.90;;;;;;6292176;28;19947;-68
2021/07/15 17:03:58;;;;;;;;;;;18.70;99.90;;;;;;6292293;28;19928;-69
2021/07/15 17:07:00;;;;;;;;;;;18.70;99.90;;;;;;6309399;28;20050;-69
2021/07/15 17:10:02;;;;;;;;;;;18.60;99.90;;;;;;6291692;28;19973;-69
2021/07/15 17:13:04;;;;;;;;;;;18.60;99.90;;;;;;6289395;28;20338;-68
2021/07/15 17:16:05;;;;;;;;;;;18.70;99.90;;;;;;6291078;28;19924;-68
2021/07/15 17:19:07;;;;;;;;;;;18.70;99.90;;;;;;6291008;28;19928;-68
2021/07/15 17:22:09;;;;;;;;;;;18.60;99.90;;;;;;6289979;28;19979;-69
2021/07/15 17:25:11;;;;;;;;;;;18.60;99.90;;;;;;6291991;28;20001;-69
2021/07/15 17:28:16;;;;;;;;;;;18.60;99.90;;;;;;6289801;28;19936;-68
2021/07/15 17:31:18;;;;;;;;;;;18.60;99.90;;;;;;6287760;28;20020;-69
2021/07/15 17:34:20;;;;;;;;;;;18.60;99.90;;;;;;6289245;28;19924;-68
2021/07/15 17:37:22;;;;;;;;;;;18.60;99.90;;;;;;6288681;28;19925;-69
2021/07/15 17:40:23;;;;;;;;;;;18.50;99.90;;;;;;6293361;28;20408;-69
2021/07/15 17:43:25;;;;;;;;;;;18.50;99.90;;;;;;6292857;28;19928;-69
2021/07/15 17:46:27;;;;;;;;;;;18.50;99.90;;;;;;6294044;28;19932;-69
2021/07/15 17:49:28;;;;;;;;;;;18.50;99.90;;;;;;6290918;28;19932;-68
2021/07/15 17:52:30;;;;;;;;;;;18.50;99.90;;;;;;6295312;28;19935;-69